Date,TemperatureHighF,TemperatureAvgF,TemperatureLowF,DewpointHighF,DewpointAvgF,DewpointLowF,HumidityHigh,HumidityAvg,HumidityLow,PressureMaxIn,PressureMinIn,WindSpeedMaxMPH,WindSpeedAvgMPH,GustSpeedMaxMPH,PrecipitationSumIn
2013-1-1,38.2,34.2,24.3,21.1,14.2,4.0,59,42,32,29.41,29.21,8,4,18,0.00
2013-1-2,33.4,24.8,19.0,6.5,4.1,1.5,45,37,25,29.56,29.35,9,3,14,0.00
2013-1-3,34.4,27.3,23.2,9.8,5.7,0.3,43,36,25,29.56,29.38,6,3,11,0.00
2013-1-4,36.2,31.7,25.9,12.4,9.0,6.6,44,36,30,29.50,29.35,10,4,22,0.00
2013-1-5,44.4,32.9,28.3,12.8,8.9,5.2,45,34,23,29.74,29.41,9,4,15,0.00
2013-1-6,48.8,37.1,30.2,30.3,15.9,9.2,91,45,21,29.59,29.29,7,3,11,0.00
2013-1-7,48.2,36.5,26.8,18.6,12.7,5.6,54,38,19,29.83,29.38,8,3,11,0.00
2013-1-8,49.8,35.9,27.0,23.8,16.2,12.5,70,45,24,29.83,29.71,7,2,12,0.00
2013-1-9,47.8,38.0,25.9,30.7,22.9,16.7,88,56,35,29.80,29.53,7,2,11,0.00
2013-1-10,51.4,40.5,33.6,16.7,11.8,7.0,41,31,19,29.91,29.59,7,3,12,0.00
2013-1-11,44.7,39.0,33.4,42.7,21.9,8.5,98,54,32,29.91,29.41,4,1,6,0.33
2013-1-12,50.2,44.0,40.0,45.9,41.3,38.3,100,91,67,29.56,29.44,4,1,6,0.00
2013-1-13,47.3,44.3,41.2,47.3,44.2,40.0,100,99,93,29.56,29.38,4,1,5,0.00
2013-1-14,55.0,47.9,36.7,52.7,38.1,18.7,100,74,35,29.71,29.32,7,2,10,0.04
2013-1-15,37.6,35.2,33.1,30.5,21.5,15.6,83,59,42,29.74,29.56,5,2,8,0.08
2013-1-16,34.2,32.1,31.1,33.6,31.2,27.4,100,96,77,29.56,29.21,4,0,6,0.42
2013-1-17,42.8,36.4,33.1,34.5,20.5,12.0,100,55,30,29.50,29.21,8,4,15,0.08
2013-1-18,33.1,27.4,22.9,21.4,4.2,-5.1,62,34,23,29.85,29.38,12,3,17,0.00
2013-1-19,51.4,37.1,23.0,16.7,10.3,0.9,51,33,19,29.74,29.29,10,4,18,0.00
2013-1-20,55.4,40.1,26.6,18.0,10.2,-1.1,47,30,17,29.38,29.09,13,6,23,0.00
2013-1-21,30.4,25.5,18.6,9.0,1.1,-2.9,47,31,23,29.47,29.12,9,2,14,0.00
2013-1-22,22.1,15.9,9.1,0.0,-10.3,-17.6,33,26,22,29.53,29.15,13,7,22,0.00
2013-1-23,20.0,10.9,5.6,-7.2,-14.0,-19.7,32,27,24,29.62,29.47,9,3,16,0.00
2013-1-24,25.4,14.2,5.2,-2.6,-10.1,-16.1,44,29,22,29.80,29.41,12,4,20,0.00
2013-1-25,23.4,14.4,8.4,5.2,-6.0,-14.2,58,37,24,29.83,29.38,8,3,14,0.00
2013-1-26,28.8,17.4,7.7,4.8,-1.6,-7.8,63,41,23,29.77,29.35,10,4,16,0.00
2013-1-27,37.1,21.6,9.7,5.5,-2.2,-9.3,46,32,22,29.94,29.77,8,3,12,0.00
2013-1-28,32.9,28.7,17.6,32.9,19.9,-1.7,100,70,37,29.85,29.29,5,2,10,0.00
2013-1-29,54.1,42.5,32.7,50.6,36.6,30.3,100,83,43,29.53,29.35,5,3,8,0.13
2013-1-30,64.2,51.5,41.0,58.7,48.7,39.6,100,92,59,29.38,28.73,10,-1,20,0.12
2013-1-31,60.4,41.5,24.8,59.8,20.2,-1.5,100,47,20,29.21,28.44,17,-3,31,1.08
2013-2-1,31.1,24.9,18.9,5.6,-0.5,-5.7,38,29,23,29.62,29.18,12,6,26,0.00
2013-2-2,30.8,20.9,13.3,14.0,0.2,-5.5,70,37,23,29.71,29.38,9,3,15,0.00
2013-2-3,34.1,24.2,18.9,18.2,11.2,5.1,74,55,32,29.38,29.06,9,1,14,0.00
2013-2-4,31.2,23.7,17.4,7.9,0.3,-3.2,44,32,23,29.38,29.12,10,4,18,0.00
2013-2-5,31.6,27.6,23.5,25.8,16.8,6.6,82,61,43,29.32,29.18,3,0,4,0.00
2013-2-6,39.0,30.2,23.0,25.1,13.8,2.2,96,54,24,29.68,29.23,10,3,15,0.04
2013-2-7,33.9,26.1,17.1,9.9,3.8,-0.4,49,36,23,29.88,29.65,5,1,7,0.00
2013-2-8,33.6,31.2,28.2,29.9,23.7,9.5,100,74,41,29.65,29.00,8,-207,12,0.00
2013-2-9,40.9,26.9,13.5,30.4,7.1,-5.4,100,46,21,29.71,29.09,12,-37,18,0.13
2013-2-10,48.9,27.1,11.1,8.5,0.6,-6.2,53,30,19,29.85,29.59,7,-44,8,0.20
2013-2-11,44.6,35.9,28.2,44.6,29.0,7.0,100,76,35,29.62,28.97,4,-311,6,0.25
2013-2-12,45.2,38.1,29.8,37.5,13.0,8.4,100,37,22,29.38,29.09,13,-58,23,0.00
2013-2-13,47.6,33.5,21.4,25.7,14.6,10.4,76,47,24,29.35,29.00,4,-49,5,0.00
2013-2-14,48.9,36.6,27.3,31.5,19.0,7.0,93,55,19,29.41,29.03,6,1,10,0.09
2013-2-15,58.6,41.6,28.6,29.6,17.9,10.0,86,44,17,29.44,29.29,7,3,14,0.00
2013-2-16,39.4,32.4,26.6,29.9,16.0,-0.5,90,53,26,29.41,29.09,8,3,13,0.08
2013-2-17,31.9,24.4,16.3,1.7,-4.0,-11.8,27,24,22,29.38,29.00,14,8,24,0.00
2013-2-18,37.4,24.2,13.8,1.8,-4.6,-11.7,31,25,21,29.68,29.38,15,6,24,0.00
2013-2-19,44.3,34.0,24.0,41.4,18.7,-2.1,100,57,23,29.47,29.00,11,3,19,0.00
2013-2-20,33.6,27.2,21.7,12.6,1.4,-2.7,41,29,23,29.38,29.06,14,8,24,0.00
2013-2-21,37.5,26.6,20.5,4.4,1.3,-1.3,43,31,21,29.59,29.35,12,7,22,0.00
2013-2-22,37.9,28.9,18.7,18.7,9.4,3.4,56,43,29,29.80,29.53,6,2,8,0.00
2013-2-23,41.6,36.9,32.0,41.0,34.5,18.3,100,92,56,29.59,29.15,6,2,8,0.45
2013-2-24,47.3,36.1,29.4,39.8,24.3,11.8,100,66,31,29.38,29.12,10,4,17,0.04
2013-2-25,47.5,34.2,26.2,18.9,14.3,11.8,60,43,27,29.62,29.38,8,2,15,0.00
2013-2-26,45.5,34.7,25.2,33.9,20.8,14.7,99,58,32,29.68,29.21,9,3,16,0.21
2013-2-27,48.9,41.0,34.2,47.5,35.1,26.4,100,82,47,29.21,28.88,9,4,14,0.33
2013-2-28,51.1,40.0,32.8,31.4,22.8,12.2,80,53,27,29.03,28.91,7,3,14,0.00
2013-3-1,47.2,36.8,30.7,29.1,18.0,11.2,88,50,24,29.18,28.88,9,5,14,0.00
2013-3-2,41.9,33.0,26.8,14.2,10.4,7.4,44,37,26,29.21,29.06,9,5,15,0.00
2013-3-3,37.6,29.8,24.3,10.3,7.0,3.0,46,35,24,29.15,29.06,11,-9,16,0.00
2013-3-4,42.2,32.4,25.3,11.4,6.1,1.9,41,32,21,29.35,29.09,11,-18,22,0.00
2013-3-5,54.2,38.2,28.4,13.8,10.5,4.7,46,32,18,29.41,29.26,9,-98,13,0.00
2013-3-6,40.6,36.6,33.4,30.0,20.2,13.9,76,52,37,29.29,29.18,12,-215,20,0.00
2013-3-7,46.4,37.1,31.6,27.8,16.2,9.9,82,45,25,29.50,29.23,7,-64,12,0.00
2013-3-8,43.3,34.0,28.2,27.3,20.5,11.2,89,61,32,29.62,29.35,10,-384,15,0.09
2013-3-9,64.3,44.1,30.5,17.0,10.4,1.3,41,26,15,29.74,29.59,9,3,14,0.00
2013-3-10,59.7,43.1,29.5,32.9,15.0,-1.1,83,36,17,29.80,29.62,6,2,9,0.00
2013-3-11,58.5,45.0,33.6,45.4,32.3,22.4,94,67,25,29.68,29.38,5,-170,8,0.00
2013-3-12,56.5,50.5,42.4,56.3,45.2,28.8,100,84,50,29.44,29.09,10,1,23,0.00
2013-3-13,53.4,40.3,31.5,30.5,14.6,6.8,62,37,18,29.35,29.21,10,4,15,0.00
2013-3-14,42.2,33.4,27.0,12.1,3.0,-1.5,41,26,21,29.38,29.21,14,7,25,0.00
2013-3-15,47.7,37.0,23.9,15.9,6.5,-1.6,36,26,19,29.38,29.12,10,4,18,0.00
2013-3-16,41.2,33.8,30.3,27.1,18.2,8.2,79,54,32,29.26,29.06,6,-77,9,1.16
2013-3-17,40.1,31.2,25.3,26.6,11.7,-0.9,96,49,21,29.68,29.23,7,-128,13,0.04
2013-3-18,37.0,29.2,24.1,32.0,12.9,-0.4,100,53,25,29.80,29.23,7,-132,13,0.00
2013-3-19,51.3,37.9,32.0,43.2,25.1,0.1,100,70,21,29.23,29.06,12,-116,15,0.17
2013-3-20,48.0,37.0,28.8,9.0,5.5,-0.1,38,26,19,29.29,29.15,10,-343,20,0.00
2013-3-21,41.8,32.3,24.8,21.1,7.6,-1.4,71,36,21,29.23,29.00,9,-165,11,0.00
2013-3-22,43.6,32.7,23.1,12.0,6.2,1.3,54,32,20,29.29,29.12,10,-111,17,0.00
2013-3-23,47.7,36.3,27.7,10.9,6.8,1.0,42,29,19,29.35,29.23,12,-165,18,0.00
2013-3-24,52.3,38.3,25.3,11.1,7.1,3.0,43,27,18,29.35,29.09,8,-12,12,0.00
2013-3-25,39.6,34.9,32.9,33.9,22.2,8.6,100,63,32,29.09,28.85,6,-116,10,0.16
2013-3-26,55.1,40.7,32.7,33.4,21.2,7.9,100,55,17,29.21,29.00,8,-371,16,0.00
2013-3-27,55.4,40.9,31.1,21.1,15.3,7.5,62,38,17,29.38,29.21,9,-161,15,0.00
2013-3-28,50.7,40.9,31.0,21.5,14.9,8.4,58,37,19,29.56,29.29,0,-999,0,0.00
2013-3-29,57.2,43.3,30.3,19.3,13.5,8.7,56,31,17,29.59,29.47,9,-492,16,0.00
2013-3-30,63.2,45.2,29.7,23.6,14.3,4.0,71,33,16,29.59,29.47,7,-350,10,0.00
2013-3-31,57.7,45.0,35.9,42.7,21.5,3.1,99,46,17,29.53,29.09,0,-999,0,0.00
2013-4-1,63.6,46.7,32.9,48.9,26.8,-1.0,100,56,18,29.32,29.06,12,-353,23,0.00
2013-4-2,46.0,35.5,27.0,7.1,2.4,-1.5,31,23,20,29.50,29.29,13,-71,26,0.00
2013-4-3,48.7,36.1,26.4,8.3,2.3,-1.8,31,23,19,29.71,29.47,12,-17,20,0.00
2013-4-4,58.6,40.0,24.2,13.8,6.4,-1.5,42,24,17,29.80,29.47,7,-81,12,0.33
2013-4-5,67.7,48.3,36.1,19.4,13.1,4.5,45,26,15,29.47,29.12,9,-71,14,0.00
2013-4-6,60.1,42.7,29.5,15.1,7.8,1.1,40,24,17,29.71,29.41,9,3,15,0.00
2013-4-7,66.0,49.1,34.5,31.0,19.9,11.7,56,34,15,29.74,29.38,13,-70,18,0.00
2013-4-8,82.2,62.7,46.3,35.5,28.9,19.6,64,33,12,29.50,29.35,6,-20,13,0.00
2013-4-9,86.7,71.7,59.4,38.4,29.5,19.6,45,24,11,29.44,29.29,10,-22,19,0.00
2013-4-10,90.9,69.5,57.3,59.3,38.4,26.1,100,40,12,29.35,29.15,11,-46,14,0.00
2013-4-11,62.1,56.3,45.3,59.8,47.4,33.0,100,75,35,29.38,29.15,7,3,10,0.00
2013-4-12,46.4,41.9,39.7,42.8,39.3,29.1,100,92,52,29.41,29.03,10,-94,21,1.58
2013-4-13,61.5,48.5,36.3,46.4,27.7,15.3,100,55,19,29.38,29.06,8,-98,12,0.04
2013-4-14,63.0,50.9,36.7,29.6,17.7,9.9,69,30,16,29.62,29.38,10,-204,18,0.00
2013-4-15,69.3,52.3,41.6,25.4,19.4,13.5,42,29,15,29.80,29.59,7,-55,10,0.00
2013-4-16,73.4,58.7,44.1,46.2,36.2,25.0,79,46,23,29.80,29.53,11,-159,20,0.00
2013-4-17,79.8,63.1,52.9,50.8,30.2,13.9,77,36,12,29.68,29.53,6,-117,10,0.00
2013-4-18,59.2,53.0,46.9,52.1,35.7,24.8,92,54,35,29.77,29.50,6,3,9,0.00
2013-4-19,79.5,64.9,51.7,62.7,53.2,40.3,100,71,30,29.50,29.03,11,-196,23,0.00
2013-4-20,61.2,50.2,42.0,46.5,20.8,6.0,94,38,16,29.71,29.09,11,-75,17,0.83
2013-4-21,63.2,45.2,30.6,16.2,9.4,4.4,34,24,16,30.06,29.74,6,2,12,0.00
2013-4-22,57.4,44.0,30.4,25.3,15.8,8.9,59,33,18,30.06,29.88,7,3,12,0.00
2013-4-23,51.2,44.0,36.9,34.3,24.8,19.4,78,48,33,29.88,29.56,5,2,8,0.00
2013-4-24,77.4,55.8,34.3,44.5,33.0,28.0,96,50,18,29.53,29.21,9,3,15,0.00
2013-4-25,70.6,54.6,41.6,43.0,16.3,6.5,49,23,14,29.68,29.26,12,4,22,0.00
2013-4-26,71.9,53.9,40.3,20.2,15.2,6.5,40,23,14,29.88,29.68,7,2,10,0.00
2013-4-27,77.5,56.9,36.1,22.7,16.0,7.7,42,22,13,29.85,29.65,5,1,9,0.00
2013-4-28,76.8,58.5,40.0,27.1,17.8,10.1,41,22,13,29.74,29.59,7,2,17,0.00
2013-4-29,52.5,51.2,49.6,51.8,44.3,20.6,100,81,28,29.65,29.59,4,2,6,0.29
2013-4-30,73.5,56.9,45.4,54.4,33.4,10.5,100,54,14,29.77,29.59,5,2,8,0.00
2013-5-1,76.1,55.5,37.0,28.3,20.1,12.0,58,29,13,29.94,29.77,5,2,10,0.00
2013-5-2,82.8,58.8,36.7,45.7,25.5,14.4,87,36,11,29.91,29.71,5,1,7,0.00
2013-5-3,74.6,57.5,43.3,34.6,22.4,12.2,60,29,13,29.88,29.74,5,2,8,0.00
2013-5-4,78.4,55.8,37.6,44.7,26.0,16.6,87,40,13,29.80,29.59,4,1,7,0.00
2013-5-5,74.5,53.8,41.7,32.4,25.5,16.9,64,38,13,29.74,29.59,4,1,7,0.00
2013-5-6,79.7,57.2,42.1,40.7,34.7,25.7,78,49,15,29.68,29.56,4,1,7,0.00
2013-5-7,77.4,60.5,48.8,53.2,43.6,36.3,84,58,24,29.59,29.47,4,-2,7,0.00
2013-5-8,78.8,60.6,55.3,65.1,56.3,42.1,100,88,28,29.53,29.32,3,-33,5,1.16
2013-5-9,73.4,61.0,53.1,59.7,46.5,34.3,100,66,25,29.38,29.29,7,-182,8,0.25
2013-5-10,87.4,68.3,52.2,64.6,42.3,27.1,100,52,13,29.44,29.29,4,-67,10,0.17
2013-5-11,74.3,63.7,57.9,67.6,58.6,42.8,100,85,41,29.32,29.12,10,2,11,1.25
2013-5-12,70.8,58.1,45.2,57.5,31.6,9.6,98,48,14,29.35,29.09,9,3,15,0.00
2013-5-13,61.0,47.7,38.1,20.3,14.8,7.2,48,28,16,29.56,29.35,7,3,14,0.00
2013-5-14,69.6,49.8,34.9,26.7,17.3,8.0,71,33,15,29.62,29.41,6,2,13,0.00
2013-5-15,79.7,64.4,45.5,45.3,31.1,10.1,56,30,17,29.50,29.06,6,2,11,0.00
2013-5-16,88.2,68.5,54.9,57.1,42.7,27.8,84,48,13,29.29,29.12,5,2,10,0.00
2013-5-17,83.3,64.7,50.1,33.1,24.6,16.5,41,24,11,29.59,29.26,4,2,9,0.00
2013-5-18,70.3,58.9,51.8,47.6,36.5,24.3,75,45,25,29.74,29.59,2,0,5,0.00
2013-5-19,59.7,56.6,54.1,57.8,54.3,47.7,99,92,76,29.74,29.59,2,-139,5,0.24
2013-5-20,84.1,68.1,56.1,66.7,54.5,44.0,100,69,26,29.62,29.35,4,-24,10,0.00
2013-5-21,93.4,75.3,62.2,71.0,54.7,40.6,100,58,17,29.44,29.23,6,2,12,0.00
2013-5-22,93.5,75.9,65.7,68.2,57.9,40.8,96,62,17,29.35,29.18,4,1,6,0.00
2013-5-23,87.0,71.3,63.3,65.9,61.2,40.8,98,74,20,29.32,29.12,6,-138,12,0.00
2013-5-24,63.7,52.9,42.1,63.7,47.6,27.8,100,84,47,29.47,29.12,6,2,11,1.62
2013-5-25,62.6,49.9,41.7,41.6,27.8,14.0,97,51,18,29.47,29.35,9,4,17,0.25
2013-5-26,76.3,56.4,41.8,28.9,20.6,11.4,58,28,13,29.65,29.44,7,3,14,0.00
2013-5-27,82.2,58.9,39.0,33.8,22.7,15.8,72,30,11,29.74,29.56,6,2,11,0.00
2013-5-28,62.4,55.8,49.1,54.9,43.9,28.0,96,67,36,29.68,29.53,2,-72,4,0.29
2013-5-29,94.2,72.1,56.3,66.2,50.4,32.9,100,60,12,29.59,29.41,6,-20,10,0.00
2013-5-30,100.6,80.8,63.5,67.5,45.6,30.5,91,38,10,29.59,29.47,5,2,9,0.00
2013-5-31,99.7,80.9,66.2,62.4,44.6,28.2,77,35,10,29.59,29.41,4,1,9,0.00
2013-6-1,99.3,80.8,66.9,62.9,47.8,31.2,82,38,10,29.44,29.29,6,2,10,0.00
2013-6-2,92.0,79.0,70.5,58.5,50.2,40.8,65,40,18,29.32,29.18,6,2,14,0.00
2013-6-3,89.5,73.4,63.7,66.8,52.5,38.3,96,56,18,29.29,29.18,6,1,10,0.17
2013-6-4,85.9,66.0,52.9,41.6,27.3,17.5,44,26,11,29.53,29.29,5,2,9,0.00
2013-6-5,88.6,65.2,47.0,34.1,28.2,22.9,48,28,13,29.65,29.47,4,-34,6,0.00
2013-6-6,76.0,61.5,51.6,56.7,45.2,27.6,92,60,18,29.56,29.38,4,-23,8,0.00
2013-6-7,60.6,59.2,58.6,60.6,58.6,56.7,100,98,93,29.38,29.26,3,-228,6,0.00
2013-6-11,83.6,74.1,65.7,70.0,50.9,40.6,100,49,25,29.21,29.06,6,3,13,0.00
2013-6-12,90.3,72.2,62.1,52.0,39.0,27.3,66,35,12,29.26,29.15,6,2,12,0.00
2013-6-13,66.9,62.0,56.0,63.7,54.9,41.9,100,79,47,29.29,28.82,8,1,11,0.00
2013-6-14,83.3,61.4,52.3,56.9,48.6,32.0,100,70,16,29.35,28.97,5,2,10,0.00
2013-6-15,89.8,68.8,55.4,57.5,42.7,24.9,94,50,11,29.50,29.35,5,-8,11,1.37
2013-6-16,87.7,69.5,55.6,56.1,45.8,27.3,88,51,14,29.47,29.18,7,2,15,0.00
2013-6-17,92.1,75.1,63.8,63.7,49.6,31.8,89,49,14,29.38,29.23,5,2,11,0.00
2013-6-18,82.6,69.3,61.0,66.7,59.4,48.3,94,74,31,29.32,29.21,3,1,4,0.16
2013-6-19,89.5,68.6,55.6,59.8,41.4,23.3,100,51,12,29.59,29.29,4,1,7,0.00
2013-6-20,90.1,69.3,52.5,57.5,37.9,27.5,88,39,12,29.71,29.59,4,1,7,0.00
2013-6-21,93.0,72.6,54.8,43.3,33.6,26.0,64,28,12,29.74,29.65,4,1,7,0.00
2013-6-22,93.1,73.5,55.0,54.0,41.9,30.8,73,37,12,29.71,29.53,5,1,8,0.00
2013-6-23,93.6,75.9,62.6,65.3,52.5,40.1,84,50,16,29.62,29.47,5,2,10,0.00
2013-6-24,97.9,76.9,66.5,74.2,57.6,32.3,100,63,11,29.50,29.38,8,2,15,0.21
2013-6-25,97.4,77.9,64.8,70.1,53.7,37.7,100,54,13,29.47,29.23,6,2,13,0.00
2013-6-26,95.3,78.7,68.0,58.4,48.4,36.8,61,38,14,29.29,29.18,5,2,11,0.00
2013-6-27,97.6,77.7,67.3,71.1,58.1,41.5,100,61,16,29.23,28.94,6,1,15,1.42
2013-6-28,94.0,76.4,66.4,72.1,57.9,40.8,100,63,17,28.97,28.88,5,2,10,0.00
2013-6-29,94.0,76.0,65.1,70.6,51.2,31.1,100,54,11,29.09,28.88,4,1,8,0.00
2013-6-30,83.5,74.8,67.7,70.9,60.0,46.6,88,62,32,29.32,29.09,4,1,10,0.04
2013-7-1,78.6,73.3,69.3,76.2,69.5,61.9,100,88,57,29.44,29.29,4,-10,8,1.87
2013-7-2,90.3,76.8,71.2,74.5,64.3,47.2,100,70,25,29.62,29.44,5,1,8,0.00
2013-7-3,92.5,77.7,69.3,68.9,61.4,47.1,91,62,21,29.68,29.59,6,1,10,0.00
2013-7-4,95.0,81.0,71.6,74.6,58.7,43.5,99,55,18,29.68,29.56,6,2,11,0.00
2013-7-5,98.7,82.3,70.2,71.2,55.0,38.0,93,47,13,29.65,29.50,6,2,11,0.00
2013-7-6,100.5,83.4,71.8,72.5,55.2,38.1,92,47,13,29.59,29.44,5,1,10,0.00
2013-7-7,99.1,82.1,69.4,66.3,56.1,42.6,89,48,15,29.53,29.35,6,2,10,0.00
2013-7-8,95.0,76.5,66.9,70.4,56.1,38.6,99,58,14,29.50,29.35,5,2,9,0.00
2013-7-9,93.7,77.0,67.3,70.3,57.4,42.4,94,57,18,29.53,29.41,3,1,6,0.00
2013-7-10,91.9,79.2,71.1,72.4,59.6,43.0,93,56,19,29.44,29.21,5,2,10,0.00
2013-7-11,76.4,75.1,74.5,70.5,67.6,64.1,86,78,66,29.26,29.21,3,0,6,0.00
2013-7-15,103.8,89.7,74.1,66.1,53.0,43.4,76,34,14,29.65,29.53,4,1,8,1.20
2013-7-16,102.3,82.3,69.4,67.5,54.3,33.6,93,50,9,29.68,29.56,3,1,6,0.00
2013-7-17,104.8,83.6,69.6,66.5,52.8,33.0,83,45,9,29.65,29.47,4,1,5,0.00
2013-7-18,104.3,85.4,73.0,68.3,55.8,40.1,77,43,12,29.53,29.38,3,1,8,0.00
2013-7-19,103.3,85.1,74.5,75.3,60.6,38.9,91,52,12,29.44,29.21,5,2,11,0.00
2013-7-20,96.8,80.7,71.6,66.3,56.9,43.9,77,49,17,29.29,29.15,6,2,10,0.00
2013-7-21,93.9,79.1,70.0,68.9,55.2,41.6,90,51,17,29.41,29.23,3,1,5,0.04
2013-7-22,91.7,75.3,68.9,71.8,63.0,50.3,97,69,24,29.38,29.21,4,0,7,0.33
2013-7-23,94.6,77.2,69.8,73.7,61.9,44.1,100,68,19,29.21,29.00,4,1,9,0.83
2013-7-24,86.3,73.3,62.1,66.4,50.3,35.4,91,50,18,29.35,29.03,4,2,9,0.00
2013-7-25,72.0,64.1,58.1,50.1,40.9,35.7,65,44,28,29.50,29.35,3,1,6,0.00
2013-7-26,91.5,70.8,58.1,60.0,43.4,27.6,94,48,12,29.50,29.41,4,1,7,0.00
2013-7-27,92.9,73.1,58.1,62.0,45.2,31.1,88,43,12,29.50,29.35,4,1,8,0.00
2013-7-28,80.8,69.9,65.1,73.5,60.4,46.0,100,74,40,29.41,29.32,4,-3,6,0.00
2013-7-29,90.3,71.8,60.0,70.3,51.1,27.2,100,63,12,29.53,29.35,4,1,11,0.00
2013-7-30,90.0,69.2,56.7,57.9,43.1,28.1,91,49,12,29.65,29.53,4,2,10,0.00
2013-7-31,88.0,70.4,57.0,61.8,46.5,33.1,92,51,15,29.59,29.44,4,0,6,2.34
2013-8-1,68.7,66.9,64.7,68.5,62.2,52.0,100,86,56,29.44,29.23,3,0,6,0.57
2013-8-2,90.0,73.0,62.8,70.4,53.2,30.7,100,62,13,29.35,29.21,4,1,8,0.05
2013-8-3,77.3,67.8,62.4,62.9,54.0,44.7,89,63,33,29.35,29.26,5,1,10,0.00
2013-8-4,86.2,68.9,57.9,63.2,45.5,26.4,100,55,13,29.41,29.26,6,-6,10,0.00
2013-8-5,87.4,66.1,54.1,51.0,38.7,25.2,81,44,13,29.50,29.38,4,-67,6,0.00
2013-8-6,85.5,68.1,54.3,58.4,44.5,27.7,92,51,13,29.56,29.41,3,1,8,0.00
2013-8-7,80.4,69.9,63.5,65.0,56.8,47.1,88,65,33,29.59,29.47,3,-3,6,0.00
2013-8-8,92.0,74.6,67.3,72.9,64.2,48.6,100,75,22,29.50,29.38,7,-24,9,0.00
2013-8-9,90.1,76.1,71.1,74.9,66.5,47.8,100,77,24,29.44,29.21,7,-33,12,0.00
2013-8-10,90.1,74.0,64.2,72.5,56.4,38.2,100,65,18,29.50,29.29,4,-27,8,0.00
2013-8-11,90.7,71.2,56.8,57.3,45.7,29.5,88,50,12,29.56,29.41,4,-36,7,1.16
2013-8-12,94.4,74.6,66.0,66.3,52.3,31.1,90,55,12,29.47,29.32,3,0,4,0.00
2013-8-13,88.1,72.5,65.5,71.8,60.1,42.1,100,71,21,29.35,29.09,3,-24,4,0.00
2013-8-14,77.8,64.1,54.0,60.3,36.5,24.6,83,40,15,29.50,29.18,6,2,10,0.00
2013-8-15,53.8,52.5,51.6,47.4,45.3,43.5,86,77,68,29.56,29.50,2,1,3,0.00
2013-9-2,81.3,73.9,68.4,74.8,67.0,57.6,98,81,46,29.23,29.12,2,-52,6,0.00
2013-9-3,86.7,72.2,61.0,71.6,53.6,28.5,100,63,13,29.32,29.12,4,-61,11,0.00
2013-9-4,86.4,67.6,57.4,59.2,43.8,28.2,96,52,13,29.47,29.29,5,1,11,0.00
2013-9-5,84.9,66.2,54.7,53.8,40.5,19.8,81,46,12,29.59,29.35,5,-30,9,3.78
2013-9-6,79.9,59.0,46.6,40.6,30.4,20.0,76,40,12,29.74,29.59,4,1,6,0.00
2013-9-7,85.0,62.8,47.5,49.4,34.7,23.0,87,43,12,29.59,29.29,5,1,8,0.00
2013-9-8,87.8,67.9,56.3,54.1,40.5,25.3,78,41,16,29.50,29.23,5,2,9,0.00
2013-9-9,81.9,62.5,47.7,49.2,35.8,26.6,70,40,14,29.68,29.47,4,1,7,0.00
2013-9-10,92.1,75.2,64.2,64.5,56.1,43.9,87,56,19,29.62,29.47,5,1,10,0.00
2013-9-11,97.8,81.0,70.5,73.2,58.8,43.3,96,54,16,29.59,29.41,5,-30,10,0.00
2013-9-12,90.4,75.1,66.7,71.9,61.2,48.8,91,66,24,29.41,29.12,6,-27,7,0.41
2013-9-13,78.2,66.0,54.7,65.6,49.2,28.3,100,63,18,29.35,29.06,6,2,10,0.00
2013-9-14,67.0,54.8,44.4,42.1,32.1,25.8,73,45,23,29.59,29.29,5,-32,10,0.00
2013-9-15,79.2,57.2,42.8,50.0,34.5,22.2,94,52,13,29.71,29.53,4,-10,8,0.00
2013-9-16,77.6,60.4,53.2,57.7,44.0,31.0,91,59,21,29.71,29.47,4,-89,8,0.00
2013-9-17,73.6,54.3,42.4,37.7,27.9,17.2,68,41,13,29.94,29.71,4,1,9,0.13
2013-9-18,77.7,54.5,40.6,47.7,30.9,18.9,86,49,13,29.83,29.62,4,-130,6,0.00
2013-9-19,82.6,59.2,45.0,51.1,35.9,23.9,90,51,14,29.71,29.50,3,-260,6,0.00
2013-9-20,85.5,64.0,50.7,58.4,41.4,27.3,92,53,13,29.59,29.41,0,-999,0,0.00
2013-9-21,83.8,65.1,53.4,63.4,46.7,26.4,92,61,14,29.44,29.12,5,-260,9,1.16
2013-9-22,74.8,60.1,49.8,60.9,40.9,20.2,100,59,13,29.38,29.12,5,-288,10,0.21
2013-9-23,71.6,53.8,43.5,37.3,27.9,20.3,76,40,16,29.50,29.35,4,-113,8,0.00
2013-9-24,79.6,55.5,40.8,40.3,30.9,20.5,86,46,12,29.53,29.32,4,-172,7,0.00
2013-9-25,78.8,57.0,43.2,44.5,32.2,20.9,82,46,15,29.44,29.32,4,-443,4,0.00
2013-9-26,76.5,58.1,46.6,55.1,41.8,31.5,93,61,21,29.59,29.35,0,-999,0,0.00
2013-9-27,72.0,58.4,48.4,51.3,40.4,28.3,92,58,21,29.71,29.53,3,-623,6,0.00
2013-9-28,81.3,61.2,50.6,51.4,39.2,23.4,86,53,12,29.80,29.65,0,-999,0,0.00
2013-9-29,78.0,58.6,47.5,55.6,40.1,28.2,94,58,18,29.68,29.50,3,-162,5,0.00
2013-9-30,79.6,57.9,45.5,55.2,38.1,23.8,97,57,15,29.56,29.41,3,-94,5,0.00
2013-10-1,84.9,62.9,50.5,54.3,42.4,27.3,97,56,13,29.50,29.35,4,-160,6,0.00
2013-10-2,87.8,66.6,54.5,59.9,44.8,28.3,97,55,13,29.47,29.35,5,-141,10,0.00
2013-10-3,84.5,66.5,53.6,61.2,44.6,27.3,93,54,14,29.59,29.47,3,-87,4,0.00
2013-10-4,89.0,70.8,59.4,63.2,49.1,34.6,91,54,15,29.53,29.41,4,-156,9,0.00
2013-10-5,88.7,71.6,62.1,64.3,52.1,37.8,90,57,18,29.53,29.41,4,-62,5,0.00
2013-10-6,72.3,66.2,63.5,64.8,61.3,55.7,94,85,61,29.53,29.41,3,-38,6,0.00
2013-10-7,74.9,64.0,53.0,68.9,60.3,36.5,100,88,52,29.44,29.18,9,-97,22,0.45
2013-10-8,70.5,54.7,44.4,47.8,34.2,20.4,93,53,17,29.80,29.41,4,1,7,0.00
2013-10-9,51.5,51.1,50.6,33.3,29.8,27.6,50,44,40,29.80,29.80,2,1,6,0.00
2013-10-13,73.4,61.1,50.7,42.1,33.8,24.2,72,39,16,29.83,29.74,0,-999,0,0.00
2013-10-14,74.6,55.9,45.3,47.9,34.8,22.5,88,53,16,29.83,29.65,4,-435,6,0.00
2013-10-15,78.5,56.2,45.0,53.6,32.0,11.4,90,49,13,29.71,29.56,4,-58,6,0.00
2013-10-16,69.3,59.0,49.1,52.1,41.7,30.7,76,55,25,29.56,29.35,2,-131,5,0.00
2013-10-17,75.1,64.3,59.4,59.8,51.1,35.9,92,67,25,29.38,29.12,7,-6,9,0.00
2013-10-18,69.0,57.5,44.9,59.3,25.9,14.9,86,32,15,29.44,29.12,7,-139,14,0.00
2013-10-19,64.3,51.3,40.6,47.5,30.6,18.8,81,50,18,29.47,29.21,5,-20,6,0.03
2013-10-20,66.0,51.7,43.6,47.8,21.0,10.0,83,33,15,29.56,29.23,9,-4,12,0.00
2013-10-21,71.1,51.8,37.2,35.5,21.2,11.3,74,35,14,29.62,29.44,5,-47,10,0.00
2013-10-22,63.7,51.9,43.0,46.8,28.3,12.9,84,43,24,29.44,29.12,5,-120,8,0.00
2013-10-23,61.1,44.0,36.6,26.7,20.0,13.7,58,40,19,29.26,29.09,5,2,11,0.00
2013-10-24,54.2,41.9,34.2,28.2,16.6,5.5,75,40,18,29.47,29.23,7,3,13,0.00
2013-10-25,56.3,42.0,34.3,19.6,14.1,8.0,52,34,17,29.62,29.44,6,3,13,0.00
2013-10-26,57.2,42.9,29.6,27.5,15.4,6.6,75,38,17,29.62,29.35,9,0,17,0.00
2013-10-27,59.6,47.4,38.4,17.9,13.0,6.6,39,25,17,29.56,29.29,7,-18,12,0.00
2013-10-28,63.9,44.9,30.3,23.7,15.8,9.5,64,34,16,29.74,29.50,7,-5,8,0.00
2013-10-29,63.3,47.3,37.6,19.5,16.1,10.0,42,30,16,29.88,29.71,4,1,6,0.00
2013-10-30,58.7,48.6,37.6,43.5,28.8,16.3,70,47,35,29.83,29.62,4,1,6,0.00
2013-10-31,64.9,58.2,52.2,55.0,46.1,40.1,80,65,41,29.68,29.26,7,1,14,0.05
2013-11-1,70.1,62.8,51.8,58.7,45.4,27.9,84,57,22,29.29,29.00,11,4,26,0.25
2013-11-2,69.9,55.1,47.1,46.0,26.7,11.7,82,38,14,29.21,29.06,5,2,10,0.00
2013-11-3,54.3,43.3,30.3,29.2,13.5,-0.8,52,31,18,29.85,29.23,7,3,11,0.00
2013-11-4,51.4,35.8,25.5,10.5,5.1,-1.0,41,27,19,30.09,29.83,4,1,9,0.00
2013-11-5,61.2,45.3,30.7,25.7,14.8,5.2,46,30,16,30.09,29.83,5,1,9,0.00
2013-11-6,67.5,53.4,42.8,42.7,28.1,19.8,69,40,17,29.88,29.50,6,-19,10,0.00
2013-11-7,59.7,50.8,36.9,52.1,38.5,16.5,83,64,39,29.50,29.23,7,3,13,0.08
2013-11-8,50.8,39.8,32.7,23.0,11.1,0.9,50,32,19,29.62,29.32,10,4,17,0.00
2013-11-9,52.1,39.6,27.8,17.8,11.8,4.8,56,33,18,29.74,29.32,6,2,11,0.00
2013-11-10,57.7,46.1,35.2,18.7,12.1,5.4,49,27,17,29.53,29.26,13,5,20,0.00
2013-11-11,53.9,45.7,36.1,11.3,8.6,4.2,30,22,18,29.68,29.32,10,4,18,0.00
2013-11-12,48.9,34.9,24.4,19.4,5.9,-1.5,51,29,21,29.74,29.35,10,4,16,0.00
2013-11-13,40.9,29.6,22.3,6.0,1.5,-1.6,34,27,21,29.85,29.62,10,-52,17,0.00
2013-11-14,29.3,28.6,28.0,5.4,5.1,4.5,33,32,31,29.65,29.59,5,3,8,0.00
2013-11-21,50.5,47.2,46.2,22.6,20.4,15.9,38,34,27,29.91,29.71,2,1,3,0.00
2013-11-22,57.6,50.1,45.5,45.0,33.0,21.9,83,54,35,29.71,29.23,6,2,13,0.00
2013-11-23,50.7,39.2,26.4,39.8,8.8,-4.9,66,29,19,29.50,29.26,12,6,17,0.00
2013-11-24,29.0,22.7,19.1,-3.2,-7.4,-9.9,25,22,20,29.80,29.38,13,7,26,0.00
2013-11-25,37.7,26.2,16.8,1.8,-2.0,-9.1,43,26,21,29.94,29.65,7,4,13,0.37
2013-11-26,41.2,32.7,29.1,38.7,13.8,-0.7,92,49,22,29.74,29.00,6,-147,10,0.00
2013-11-27,59.9,41.4,29.1,58.6,33.6,4.2,99,76,28,29.21,28.76,12,5,19,0.00
2013-11-28,36.5,28.9,25.0,9.3,1.6,-3.5,39,28,22,29.91,29.21,12,5,24,0.00
2013-11-29,39.6,27.7,20.3,14.6,4.0,0.0,54,34,21,30.15,29.91,6,2,10,0.00
2013-11-30,37.4,27.8,16.7,15.6,4.6,-3.6,48,35,21,30.18,29.71,4,2,7,2.28
2013-12-1,53.8,37.1,24.8,28.0,14.3,6.7,77,43,18,29.74,29.41,5,-7,8,0.00
2013-12-3,42.1,37.2,31.1,17.7,14.5,11.9,53,39,29,29.35,29.29,3,-100,3,0.00
2013-12-4,51.7,42.4,32.0,35.8,23.7,16.2,67,49,28,29.56,29.35,3,-2,6,0.00
2013-12-5,55.9,50.6,45.5,55.6,46.9,35.5,100,87,66,29.50,29.32,4,-79,6,0.00
2013-12-6,59.7,45.2,34.5,59.1,41.7,29.5,99,88,72,29.56,29.26,7,-120,11,0.42
2013-12-7,38.9,32.3,24.6,31.5,17.0,4.9,89,55,29,29.85,29.47,9,-24,13,0.00
2013-12-8,29.3,25.3,20.4,21.7,10.4,2.9,79,51,31,30.00,29.74,4,-5,6,0.00
2013-12-9,34.4,31.7,27.0,31.0,28.5,22.0,92,87,79,29.74,29.35,4,-771,8,0.00
2013-12-10,33.9,29.0,21.0,30.2,20.7,3.0,92,70,38,29.50,29.26,5,-819,12,0.00
2013-12-11,38.5,25.6,17.4,4.6,1.7,-1.5,44,33,21,29.77,29.50,7,-74,15,0.91
2013-12-12,24.3,22.8,21.8,5.1,3.1,1.5,41,38,35,29.71,29.65,5,-521,6,0.00
2013-12-17,21.9,17.2,13.7,11.3,7.6,5.2,71,62,58,29.38,29.35,4,-119,6,0.08
2013-12-18,40.5,25.4,14.4,14.3,5.3,-1.0,79,44,21,29.59,29.32,10,-52,15,0.00
2013-12-19,48.9,33.5,21.8,12.5,6.5,2.3,50,32,19,29.59,29.47,7,2,10,0.04
2013-12-20,50.5,37.7,32.9,14.4,9.6,6.5,40,31,19,29.56,29.47,5,1,10,0.04
2013-12-21,62.4,57.2,51.9,43.1,32.1,22.8,59,40,24,29.44,29.29,6,2,12,0.00
2013-12-22,67.1,62.2,58.1,55.0,46.2,38.1,81,57,35,29.38,29.18,11,-9,24,0.00
2013-12-23,58.3,52.1,37.2,55.2,43.0,10.0,91,73,32,29.56,29.35,10,-223,13,0.63
2013-12-24,39.7,31.7,21.5,16.8,5.2,-1.3,69,32,21,29.77,29.50,11,-90,18,0.00
2013-12-25,31.2,21.5,13.2,1.8,-3.5,-8.3,35,29,23,29.91,29.77,7,-417,8,0.00
2013-12-26,36.1,26.4,16.3,14.4,7.6,0.6,51,41,32,29.80,29.56,0,-999,0,0.00
2013-12-27,41.7,29.6,21.9,7.5,4.1,-1.1,45,32,21,29.80,29.65,6,-644,12,0.00
2013-12-28,56.9,40.6,26.3,12.5,6.9,2.1,35,24,17,29.77,29.47,9,-456,15,0.00
2013-12-29,42.6,39.5,36.9,37.2,20.8,5.0,90,54,23,29.50,28.85,0,-999,0,0.87
2013-12-30,42.9,33.9,19.9,33.3,14.0,-3.7,83,45,24,29.56,29.09,10,-472,13,0.00
2013-12-31,30.2,22.9,13.5,14.7,-0.4,-6.6,52,32,23,29.74,29.44,11,-122,19,0.00
2014-1-1,34.6,26.0,15.8,3.9,-0.5,-9.1,33,28,22,29.85,29.65,5,-164,9,0.00
2014-1-2,27.9,24.0,15.4,12.5,8.2,3.6,67,48,32,29.65,29.06,6,3,11,0.00